Station: She Oaks  

  Atmospheric Gas Attenuation - ITU Rec 676-11   ----------------- dB/100km -----------------
Date Time Temp RH % AH g/m3 Dew Point Wind Direction Speed kph Gust kph Barometer mB Rainfall Since 9am 24GHz 47GHz 76GHz 122GHz 134GHz 241GHz
08/05 12:30 13.4 81 9.42 10.2 19 33 1024.3 0.8 21.3 27.8 43.9 115.2 111.0 382.2
08/05 12:20 13.4 82 9.53 10.5 22 26 1024.5 0.8 21.6 28.0 44.4 116.4 112.5 387.6
08/05 12:10 13.2 85 9.76 10.7 24 30 1024.5 0.8 22.1 28.4 45.4 119.3 116.0 399.8
08/05 12:00 12.5 93 10.23 11.4 15 26 1024.6 0.8 23.1 29.5 47.9 125.9 123.8 426.9
08/05 11:50 12 92 9.81 10.7 19 24 1024.6 0.6 22.3 28.9 46.4 121.8 118.5 408.6
08/05 11:40 13.4 85 9.88 10.9 17 22 1024.5 0.6 22.3 28.6 45.8 120.4 117.4 404.7
08/05 11:30 12.9 89 10.03 11.1 19 35 1024.4 0.6 22.7 29.0 46.8 122.9 120.2 414.7
08/05 11:20 12.5 90 9.9 11 17 24 1024.4 0.6 22.4 28.9 46.4 122.0 119.0 410.3
08/05 11:10 12.6 94 10.4 11.6 15 22 1024.5 0.6 23.5 29.8 48.6 127.7 126.0 434.8
08/05 11:00 12.4 97 10.6 11.9 15 22 1024.3 0.6 23.9 30.2 49.6 130.3 129.3 446.0
08/05 10:50 12 95 10.13 11.2 19 28 1024.3 0.6 23.0 29.5 47.7 125.5 123.1 424.5
08/05 10:40 12.3 90 9.77 10.8 20 28 1024.2 0.4 22.2 28.7 46.0 120.8 117.5 404.9
08/05 10:30 12.7 86 9.57 10.4 20 30 1024 0 21.7 28.3 44.9 117.9 114.0 392.9
08/05 10:20 12.5 87 9.57 10.4 15 22 1024 0 21.7 28.3 45.0 118.2 114.3 393.9
08/05 10:10 12.4 87 9.51 10.4 17 26 1023.7 0 21.6 28.2 44.8 117.6 113.6 391.4
08/05 10:00 12.4 90 9.83 10.8 19 32 1023.5 0 22.3 28.8 46.2 121.3 118.1 407.1
08/05 09:50 12.1 89 9.55 10.3 20 28 1023.4 0 21.7 28.4 45.1 118.5 114.6 394.8
08/05 09:40 11.9 90 9.53 10.3 20 28 1023.5 0 21.7 28.4 45.2 118.6 114.6 394.9
08/05 09:30 11.9 93 9.85 10.8 22 39 1023.3 0 22.4 29.0 46.5 122.3 119.1 410.7
08/05 09:20 11.8 95 10 11.1 17 22 1023.2 0 22.7 29.3 47.2 124.2 121.4 418.7
08/05 09:10 11.6 97 10.08 11.1 20 26 1023.2 0 22.9 29.5 47.7 125.4 122.9 423.8
08/05 09:00 11.5 97 10.02 11 19 28 1023.2 0 22.7 29.4 47.5 124.9 122.2 421.4
08/05 08:50 11.4 97 9.96 10.9 20 26 1023.3 1 22.6 29.3 47.3 124.3 121.5 418.9
08/05 08:40 11.3 97 9.9 10.8 19 26 1023.2 1 22.5 29.3 47.1 123.8 120.8 416.4
08/05 08:30 11.2 98 9.94 10.9 20 35 1023.2 1 22.6 29.4 47.3 124.4 121.5 419.0
08/05 08:20 11.2 100 10.14 11.2 19 26 1023.2 1 23.0 29.7 48.2 126.8 124.4 429.1
08/05 08:10 11 100 10.01 11 17 20 1023.1 1 22.8 29.6 47.8 125.6 122.9 423.6
08/05 08:00 11 100 10.01 11 17 33 1022.9 1 22.8 29.5 47.8 125.5 122.8 423.5
08/05 07:50 10.9 100 9.95 10.9 13 17 1022.8 1 22.6 29.5 47.6 125.0 122.1 421.0
08/05 07:40 11 100 10.01 11 13 17 1022.7 1 22.8 29.5 47.8 125.5 122.8 423.4
08/05 07:30 11 99 9.91 10.8 19 30 1022.6 0.8 22.5 29.4 47.3 124.3 121.4 418.3
08/05 07:20 11 99 9.91 10.8 20 28 1022.4 0.8 22.5 29.3 47.3 124.3 121.3 418.3
08/05 07:10 11 99 9.91 10.8 19 22 1022.2 0.8 22.5 29.3 47.3 124.3 121.3 418.2
08/05 07:00 11.1 98 9.87 10.8 20 33 1022.1 0.8 22.4 29.2 47.0 123.6 120.6 415.6
08/05 06:50 11.1 98 9.87 10.8 17 22 1022.1 0.8 22.4 29.2 47.0 123.6 120.6 415.6
08/05 06:40 11 99 9.91 10.8 22 33 1021.9 0.8 22.5 29.3 47.3 124.2 121.3 418.1
08/05 06:30 10.9 99 9.85 10.7 20 41 1021.8 0.6 22.4 29.3 47.1 123.7 120.6 415.6
08/05 06:20 10.9 99 9.85 10.7 22 35 1021.8 0.6 22.4 29.3 47.1 123.7 120.6 415.6
08/05 06:10 11 98 9.81 10.7 22 30 1021.7 0.6 22.3 29.1 46.8 123.0 119.8 413.0
08/05 06:00 11.1 97 9.77 10.6 20 35 1021.6 0.6 22.2 29.0 46.6 122.4 119.1 410.4
08/05 05:50 11.1 97 9.77 10.6 19 26 1021.6 0.6 22.2 29.0 46.6 122.4 119.1 410.4
08/05 05:40 11 99 9.91 10.8 20 26 1021.5 0.6 22.5 29.3 47.3 124.2 121.3 418.0
08/05 05:30 11.1 99 9.97 10.9 20 32 1021.4 0.6 22.7 29.4 47.4 124.7 122.0 420.4
08/05 05:20 11.1 99 9.97 10.9 19 26 1021.3 0.6 22.7 29.4 47.4 124.7 122.0 420.4
08/05 05:10 11.1 99 9.97 10.9 24 32 1021.3 0.6 22.7 29.4 47.4 124.7 122.0 420.4
08/05 05:00 11.1 100 10.07 11.1 24 39 1021.2 0.6 22.9 29.5 47.9 125.9 123.4 425.4
08/05 04:50 11.1 100 10.07 11.1 22 32 1021.2 0.6 22.9 29.5 47.9 125.9 123.4 425.4
08/05 04:40 11.1 100 10.07 11.1 15 26 1021 0.6 22.9 29.5 47.9 125.8 123.4 425.4
08/05 04:30 11.2 99 10.04 11 17 30 1020.9 0.6 22.8 29.5 47.7 125.3 122.8 423.3
08/05 04:20 11.2 97 9.83 10.7 19 28 1020.8 0.4 22.4 29.1 46.7 122.8 119.7 412.6
08/05 04:10 11.3 95 9.69 10.6 28 37 1020.5 0.4 22.0 28.8 46.1 121.0 117.5 405.0
08/05 04:00 11.3 97 9.9 10.8 24 43 1020.4 0.4 22.5 29.1 47.0 123.5 120.5 415.5
08/05 03:50 11.2 99 10.04 11 20 24 1020.3 0.4 22.8 29.4 47.6 125.2 122.7 423.1
08/05 03:40 11.2 100 10.14 11.2 15 20 1020.2 0.4 23.0 29.6 48.1 126.4 124.1 428.1
08/05 03:30 11.1 100 10.07 11.1 22 35 1020.1 0.4 22.9 29.5 47.8 125.7 123.3 425.1
08/05 03:20 11.1 99 9.97 10.9 20 26 1020.1 0.2 22.7 29.3 47.4 124.6 121.8 420.0
08/05 03:10 11.1 99 9.97 10.9 22 30 1019.9 0.2 22.7 29.3 47.4 124.5 121.8 419.9
08/05 03:00 11 99 9.91 10.8 22 33 1019.8 0.2 22.5 29.2 47.2 124.0 121.1 417.4
08/05 02:50 10.9 99 9.85 10.7 24 30 1019.9 0.2 22.4 29.2 47.0 123.5 120.4 415.0
08/05 02:40 10.9 98 9.75 10.6 19 24 1020 0.2 22.2 29.0 46.5 122.3 119.0 409.9
08/05 02:30 10.9 98 9.75 10.6 26 43 1020 0.2 22.2 29.0 46.5 122.3 119.0 409.9
08/05 02:20 10.9 97 9.65 10.4 24 32 1020.1 0.2 22.0 28.8 46.1 121.1 117.5 405.0
08/05 02:10 10.9 97 9.65 10.4 22 30 1020.1 0.2 22.0 28.8 46.1 121.1 117.5 405.0
08/05 02:00 10.8 97 9.59 10.3 24 37 1020.3 0.2 21.9 28.8 45.9 120.6 116.8 402.5
08/05 01:50 10.8 95 9.39 10.1 24 33 1020.4 0.2 21.4 28.4 45.0 118.3 114.0 392.6
08/05 01:40 10.8 95 9.39 10.1 22 28 1020.3 0.2 21.4 28.4 45.0 118.3 114.0 392.5
08/05 01:30 10.6 97 9.47 10.1 26 41 1020.5 0.2 21.6 28.6 45.5 119.6 115.5 397.6
08/05 01:20 10.5 98 9.51 10.2 28 35 1020.9 0.2 21.7 28.7 45.8 120.2 116.2 400.3
08/05 01:10 10.4 98 9.45 10.1 22 32 1021.1 0.2 21.6 28.7 45.6 119.7 115.5 397.8
08/05 01:00 10.3 98 9.39 10 20 44 1021.2 0.2 21.5 28.6 45.4 119.2 114.8 395.4
08/05 00:50 10.3 97 9.29 9.8 19 22 1021.2 0.2 21.2 28.4 44.9 118.0 113.4 390.4
08/05 00:40 10.3 96 9.2 9.7 20 26 1021.3 0.2 21.0 28.3 44.5 117.0 112.1 385.9
08/05 00:30 10.3 96 9.2 9.7 26 43 1021.3 0.2 21.0 28.3 44.5 117.0 112.1 385.9
08/05 00:20 10.2 97 9.23 9.7 26 35 1021.5 0.2 21.1 28.4 44.7 117.5 112.7 388.0
08/05 00:10 10.1 98 9.27 9.8 24 28 1021.6 0.2 21.2 28.5 45.0 118.1 113.4 390.5
08/05 00:00 9.9 98 9.15 9.6 24 37 1021.6 0.2 21.0 28.3 44.6 117.0 112.0 385.5
07/05 23:50 9.9 98 9.15 9.6 26 32 1021.7 0.2 21.0 28.3 44.6 117.0 112.0 385.5
07/05 23:40 9.8 98 9.09 9.5 26 30 1021.7 0.2 20.8 28.3 44.4 116.5 111.3 383.0
07/05 23:30 9.7 98 9.04 9.4 22 35 1021.6 0.2 20.7 28.2 44.2 116.1 110.7 381.0
07/05 23:20 9.6 97 8.89 9.1 24 30 1021.7 0.2 20.4 28.0 43.6 114.5 108.7 374.0
07/05 23:10 9.6 97 8.89 9.1 24 30 1022.2 0.2 20.4 28.0 43.6 114.5 108.8 374.2
07/05 23:00 9.5 97 8.83 9 24 35 1022.1 0.2 20.3 27.9 43.4 114.0 108.1 371.6
07/05 22:50 9.4 97 8.78 8.9 26 32 1022.3 0.2 20.2 27.9 43.3 113.6 107.5 369.7
07/05 22:40 9.3 96 8.63 8.7 26 32 1022.3 0.2 19.9 27.7 42.7 112.0 105.5 362.7
07/05 22:30 9.3 95 8.54 8.5 26 39 1022.4 0.2 19.7 27.5 42.3 111.0 104.3 358.3
07/05 22:20 9.3 93 8.36 8.3 28 41 1022.5 0.2 19.3 27.2 41.5 108.9 101.7 349.5
07/05 22:10 9.3 93 8.36 8.2 30 37 1022.7 0.2 19.3 27.2 41.6 108.9 101.8 349.5
07/05 22:00 9.2 93 8.31 8.1 24 33 1022.4 0.2 19.2 27.1 41.4 108.5 101.2 347.4
07/05 21:50 9.2 93 8.31 8.1 28 33 1022.3 0.2 19.2 27.1 41.4 108.5 101.2 347.4
07/05 21:40 9.2 93 8.31 8.1 24 32 1022.4 0.2 19.2 27.1 41.4 108.5 101.2 347.4
07/05 21:30 9.2 93 8.31 8.1 26 43 1022.4 0.2 19.2 27.1 41.4 108.5 101.2 347.4
07/05 21:20 9.1 93 8.25 8 26 32 1022.4 0.2 19.1 27.1 41.2 107.9 100.5 344.9
07/05 21:10 8.9 93 8.15 7.9 26 33 1022.2 0.2 18.9 27.0 40.8 107.1 99.3 340.9
07/05 21:00 8.8 94 8.18 7.9 26 41 1022.1 0.2 18.9 27.0 41.0 107.5 99.8 342.7
07/05 20:50 8.7 93 8.05 7.7 26 32 1022.2 0.2 18.6 26.8 40.5 106.2 98.2 336.8
07/05 20:40 8.6 94 8.08 7.7 20 26 1022.4 0.2 18.7 26.9 40.7 106.7 98.7 338.8
07/05 20:30 8.6 94 8.08 7.7 24 35 1022.4 0.2 18.7 26.9 40.7 106.7 98.7 338.8
07/05 20:20 8.6 93 7.99 7.5 28 39 1022.6 0.2 18.5 26.8 40.3 105.7 97.5 334.5
07/05 20:10 8.7 91 7.87 7.4 22 32 1022.7 0.2 18.3 26.6 39.8 104.2 95.7 328.2
07/05 20:00 8.7 91 7.87 7.3 22 33 1022.7 0.2 18.3 26.6 39.8 104.2 95.7 328.2

Last Refresh: 08-May-2026 12:07:36

Bureau of Meteorology